Time;durP1;ratioP1;P1;durP2;ratioP2;P2;SDS_P1;SDS_P2;PMS_P1;PMS_P2;Temp;Humidity;BMP_temperature;BMP_pressure;BME280_temperature;BME280_humidity;BME280_pressure;Samples;Min_cycle;Max_cycle;Signal;HPM_P1;HPM_P2
2023/06/23 00:00:22;;;;;;;13.62;4.90;;;29.60;95.00;;;;;;1890950;74;21058;-81
2023/06/23 00:02:58;;;;;;;14.83;5.05;;;29.60;95.00;;;;;;1859505;76;21190;-78
2023/06/23 00:05:32;;;;;;;10.05;4.45;;;29.70;94.70;;;;;;1897160;74;21122;-77
2023/06/23 00:08:05;;;;;;;9.80;4.78;;;29.70;94.30;;;;;;1837821;76;21145;-79
2023/06/23 00:10:36;;;;;;;7.15;4.08;;;29.70;94.20;;;;;;1888470;74;21094;-80
2023/06/23 00:13:09;;;;;;;8.23;3.70;;;29.80;94.00;;;;;;1887997;74;21137;-82
2023/06/23 00:15:45;;;;;;;10.85;4.92;;;29.80;93.90;;;;;;1894685;74;21096;-79
2023/06/23 00:18:17;;;;;;;8.00;3.75;;;29.80;93.90;;;;;;1865195;76;21220;-79
2023/06/23 00:20:54;;;;;;;13.68;4.53;;;29.90;93.60;;;;;;1853440;75;21150;-78
2023/06/23 00:23:26;;;;;;;10.45;4.85;;;30.00;93.60;;;;;;1829880;77;21087;-77
2023/06/23 00:26:01;;;;;;;12.70;4.03;;;30.00;93.70;;;;;;1889730;75;21178;-77
2023/06/23 00:28:45;;;;;;;7.80;4.33;;;30.10;93.40;;;;;;1891808;74;21146;-76
2023/06/23 00:31:36;;;;;;;8.93;4.00;;;30.10;93.30;;;;;;1813310;78;21077;-76
2023/06/23 00:34:08;;;;;;;9.80;4.50;;;30.20;93.40;;;;;;1904739;75;21218;-81
2023/06/23 00:36:40;;;;;;;8.80;4.62;;;30.20;93.30;;;;;;1842413;76;21202;-78
2023/06/23 00:39:13;;;;;;;14.60;5.58;;;30.30;93.50;;;;;;1845603;77;21576;-76
2023/06/23 00:41:45;;;;;;;7.97;4.70;;;30.30;93.40;;;;;;1890125;75;21148;-81
2023/06/23 00:44:17;;;;;;;11.80;3.67;;;30.40;93.20;;;;;;1839227;76;21132;-79
2023/06/23 00:46:54;;;;;;;8.93;3.77;;;30.50;92.90;;;;;;1893358;74;21122;-75
2023/06/23 00:49:25;;;;;;;11.03;4.43;;;30.50;92.40;;;;;;1841186;76;21597;-80
2023/06/23 00:52:04;;;;;;;8.73;4.50;;;30.50;92.00;;;;;;1904360;74;21622;-75
2023/06/23 00:54:39;;;;;;;6.87;3.90;;;30.70;92.70;;;;;;1905561;74;21065;-85
2023/06/23 00:57:12;;;;;;;8.83;3.37;;;30.70;92.10;;;;;;1893803;74;21120;-82
2023/06/23 00:59:44;;;;;;;7.90;3.70;;;30.80;92.00;;;;;;1884654;76;21475;-79
2023/06/23 01:02:21;;;;;;;8.88;3.42;;;30.90;92.00;;;;;;1833657;76;21217;-77
2023/06/23 01:04:55;;;;;;;9.75;3.50;;;31.00;91.40;;;;;;1922508;73;21081;-82
2023/06/23 01:07:29;;;;;;;9.05;3.55;;;31.00;91.60;;;;;;1893259;74;21115;-78
2023/06/23 01:10:10;;;;;;;10.88;4.12;;;31.20;91.40;;;;;;1888806;74;21169;-75
2023/06/23 01:12:55;;;;;;;8.90;4.00;;;31.30;91.00;;;;;;1851632;76;21159;-80
2023/06/23 01:15:38;;;;;;;15.93;3.80;;;31.40;90.50;;;;;;1886531;75;21111;-78
2023/06/23 01:18:35;;;;;;;8.03;3.52;;;31.50;90.40;;;;;;1904818;74;21137;-80
2023/06/23 01:21:09;;;;;;;11.75;4.20;;;31.70;89.70;;;;;;1847850;76;21200;-77
2023/06/23 01:23:49;;;;;;;28.07;7.17;;;31.80;89.60;;;;;;1848051;76;21073;-75
2023/06/23 01:26:31;;;;;;;28.05;6.75;;;31.80;88.30;;;;;;1893712;75;21929;-75
2023/06/23 01:29:09;;;;;;;7.62;3.37;;;31.90;87.80;;;;;;1893942;74;21117;-73
2023/06/23 01:31:47;;;;;;;8.50;3.83;;;31.90;86.90;;;;;;1892570;74;21094;-73
2023/06/23 01:34:23;;;;;;;12.73;4.33;;;31.90;87.60;;;;;;1874307;74;21807;-73
2023/06/23 01:37:00;;;;;;;10.30;3.77;;;31.90;87.60;;;;;;1893834;74;21616;-71
2023/06/23 01:39:35;;;;;;;15.78;4.08;;;31.90;86.00;;;;;;1840147;76;21071;-72
2023/06/23 01:42:09;;;;;;;25.23;5.22;;;32.00;87.60;;;;;;1847209;77;21186;-75
2023/06/23 01:44:43;;;;;;;12.40;8.03;;;32.00;87.30;;;;;;1849447;77;21510;-74
2023/06/23 01:47:24;;;;;;;7.22;3.27;;;32.10;84.20;;;;;;1844473;76;21133;-75
2023/06/23 01:49:59;;;;;;;6.05;2.98;;;32.10;84.80;;;;;;1888970;74;21103;-74
2023/06/23 01:52:38;;;;;;;11.15;3.12;;;32.10;84.80;;;;;;1841328;76;21639;-74
2023/06/23 01:55:08;;;;;;;12.50;3.27;;;32.10;85.00;;;;;;1829757;77;21496;-72
2023/06/23 01:57:40;;;;;;;14.70;3.20;;;32.20;85.70;;;;;;1811332;78;21181;-73
2023/06/23 02:00:13;;;;;;;70.17;10.30;;;32.30;85.40;;;;;;1813620;78;21150;-76
2023/06/23 02:02:48;;;;;;;21.95;6.03;;;32.40;85.60;;;;;;1798028;78;21154;-75
2023/06/23 02:05:23;;;;;;;;;;;32.50;85.90;;;;;;1818325;77;21587;-74
2023/06/23 02:07:56;;;;;;;19.75;4.25;;;32.70;86.10;;;;;;1811073;78;20264;-76
2023/06/23 02:10:30;;;;;;;16.37;4.15;;;32.70;83.70;;;;;;1811528;77;21119;-77
2023/06/23 02:13:04;;;;;;;18.25;3.60;;;32.90;83.80;;;;;;1815215;78;21077;-74
2023/06/23 02:15:37;;;;;;;8.33;2.35;;;33.00;84.40;;;;;;1842513;76;21188;-71
2023/06/23 02:18:10;;;;;;;10.13;3.22;;;33.00;82.70;;;;;;1844505;76;21062;-72
2023/06/23 02:20:43;;;;;;;48.70;13.62;;;33.10;82.50;;;;;;1840056;77;21091;-75
2023/06/23 02:23:16;;;;;;;8.03;2.90;;;33.20;83.20;;;;;;1851278;76;21139;-75
2023/06/23 02:25:51;;;;;;;5.10;2.20;;;33.30;82.40;;;;;;1886900;74;21730;-77
2023/06/23 02:28:24;;;;;;;7.92;1.82;;;33.30;81.10;;;;;;1884675;74;21204;-75
2023/06/23 02:30:56;;;;;;;4.97;2.35;;;33.30;80.50;;;;;;1888805;74;21122;-75
2023/06/23 02:33:28;;;;;;;5.05;2.52;;;33.20;80.90;;;;;;1885801;74;21082;-73
2023/06/23 02:36:04;;;;;;;4.65;2.02;;;33.20;81.20;;;;;;1888850;74;21176;-78
2023/06/23 02:38:37;;;;;;;12.07;4.13;;;33.30;79.50;;;;;;1888908;74;21108;-78
2023/06/23 02:41:10;;;;;;;4.53;2.17;;;33.30;80.60;;;;;;1889004;74;21605;-73
2023/06/23 02:43:45;;;;;;;4.03;1.70;;;33.50;78.80;;;;;;1895770;74;21188;-75
2023/06/23 02:46:19;;;;;;;5.28;1.75;;;33.50;77.80;;;;;;1882282;76;21129;-75
2023/06/23 02:48:58;;;;;;;6.03;2.05;;;33.60;78.10;;;;;;1883767;74;21243;-73
2023/06/23 02:51:31;;;;;;;7.00;2.47;;;33.70;78.00;;;;;;1877278;74;21213;-74
2023/06/23 02:54:05;;;;;;;12.80;2.72;;;33.70;77.00;;;;;;1893353;75;21533;-75
2023/06/23 02:56:45;;;;;;;13.18;2.60;;;33.80;77.50;;;;;;1890823;75;21066;-75
2023/06/23 02:59:21;;;;;;;8.80;1.90;;;33.80;76.70;;;;;;1891813;75;21604;-75
2023/06/23 03:01:54;;;;;;;14.18;2.98;;;33.90;76.10;;;;;;1840668;78;21522;-75
2023/06/23 03:04:28;;;;;;;3.42;1.75;;;34.00;76.90;;;;;;1887074;74;21197;-73
2023/06/23 03:07:03;;;;;;;10.75;2.90;;;34.00;76.00;;;;;;1881657;76;21134;-74
2023/06/23 03:09:37;;;;;;;8.98;2.02;;;34.10;76.20;;;;;;1909924;74;21081;-72
2023/06/23 03:12:09;;;;;;;5.65;2.00;;;34.10;76.30;;;;;;1894750;74;21096;-75
2023/06/23 03:14:49;;;;;;;6.83;2.55;;;34.20;76.90;;;;;;1893994;75;21169;-75
2023/06/23 03:17:26;;;;;;;13.95;3.00;;;34.20;77.80;;;;;;1891245;74;21112;-73
2023/06/23 03:20:11;;;;;;;6.62;2.25;;;34.30;77.90;;;;;;1900723;74;21110;-74
2023/06/23 03:22:49;;;;;;;18.52;5.42;;;34.40;78.10;;;;;;1861286;76;21141;-72
2023/06/23 03:25:26;;;;;;;10.48;2.70;;;34.50;78.20;;;;;;1837372;78;21563;-73
2023/06/23 03:27:59;;;;;;;4.17;1.90;;;34.60;77.40;;;;;;1888286;74;21137;-72
2023/06/23 03:31:02;;;;;;;13.68;5.08;;;34.70;75.50;;;;;;1867068;76;21252;-75
2023/06/23 03:33:36;;;;;;;11.40;3.47;;;34.70;76.20;;;;;;1834013;78;21632;-74
2023/06/23 03:36:11;;;;;;;11.50;2.50;;;34.70;75.80;;;;;;1884316;74;21572;-75
2023/06/23 03:39:00;;;;;;;4.12;1.82;;;34.70;75.10;;;;;;1881885;74;21143;-74
2023/06/23 03:41:37;;;;;;;6.28;1.80;;;34.80;73.90;;;;;;1809345;77;21164;-75
2023/06/23 03:44:28;;;;;;;8.10;2.15;;;34.80;73.70;;;;;;1886048;74;21571;-75
2023/06/23 03:47:03;;;;;;;5.65;2.08;;;34.80;73.80;;;;;;1838315;77;21193;-73
2023/06/23 03:49:43;;;;;;;4.00;1.60;;;34.80;74.20;;;;;;1885116;75;21623;-72
2023/06/23 03:52:16;;;;;;;6.12;1.90;;;34.80;74.40;;;;;;1854822;77;21150;-74
2023/06/23 03:54:49;;;;;;;6.08;2.00;;;34.80;75.10;;;;;;1817406;78;21122;-74
2023/06/23 03:57:22;;;;;;;8.68;2.45;;;34.80;75.90;;;;;;1881430;74;21511;-73
2023/06/23 03:59:56;;;;;;;14.70;2.92;;;34.90;73.30;;;;;;1889101;75;21153;-74
2023/06/23 04:02:33;;;;;;;4.97;1.85;;;35.00;74.00;;;;;;1883473;74;21980;-75
2023/06/23 04:05:04;;;;;;;12.47;2.87;;;35.10;73.50;;;;;;1894840;74;21104;-75
2023/06/23 04:07:37;;;;;;;9.48;2.47;;;35.00;74.10;;;;;;1872027;75;21159;-73
2023/06/23 04:10:10;;;;;;;10.10;2.55;;;35.10;73.90;;;;;;1879317;76;21600;-75
2023/06/23 04:12:43;;;;;;;5.17;2.10;;;35.10;73.00;;;;;;1883864;75;21600;-74
2023/06/23 04:15:16;;;;;;;4.92;1.55;;;35.20;73.20;;;;;;1800907;78;21119;-74
2023/06/23 04:17:50;;;;;;;12.25;2.58;;;35.30;72.10;;;;;;1886239;74;21177;-74
2023/06/23 04:20:25;;;;;;;25.95;4.42;;;35.40;72.90;;;;;;1887486;76;21099;-77
2023/06/23 04:22:59;;;;;;;4.60;2.47;;;35.50;73.10;;;;;;1891206;75;21184;-75
2023/06/23 04:25:31;;;;;;;7.87;1.82;;;35.60;71.30;;;;;;1835955;78;21173;-74
2023/06/23 04:28:04;;;;;;;7.87;1.80;;;35.60;71.80;;;;;;1885523;75;21109;-74
2023/06/23 04:30:39;;;;;;;6.20;2.00;;;35.70;71.70;;;;;;1887822;75;21643;-75
2023/06/23 04:33:13;;;;;;;5.22;2.30;;;35.70;71.30;;;;;;1843455;77;21172;-75
2023/06/23 04:35:47;;;;;;;4.55;2.17;;;35.70;70.50;;;;;;1842043;77;21661;-73
2023/06/23 04:38:22;;;;;;;5.65;1.87;;;35.80;69.30;;;;;;1888375;75;21108;-75
2023/06/23 04:40:56;;;;;;;7.05;2.45;;;35.80;69.60;;;;;;1889591;75;21070;-75
2023/06/23 04:43:33;;;;;;;8.20;1.98;;;35.70;70.10;;;;;;1895937;74;21141;-75
2023/06/23 04:46:19;;;;;;;12.82;2.62;;;35.80;68.30;;;;;;1899921;75;21040;-76
2023/06/23 04:48:58;;;;;;;4.85;1.42;;;35.80;68.20;;;;;;1897788;74;21141;-73
2023/06/23 04:51:33;;;;;;;8.63;1.90;;;35.80;65.70;;;;;;1886407;74;21134;-74
2023/06/23 04:54:07;;;;;;;3.20;1.50;;;35.80;67.70;;;;;;1844211;77;21130;-77
2023/06/23 04:56:40;;;;;;;7.95;1.80;;;35.90;66.70;;;;;;1882094;76;21138;-74
2023/06/23 04:59:13;;;;;;;6.28;1.77;;;36.00;67.10;;;;;;1882774;76;21130;-74
2023/06/23 05:01:46;;;;;;;5.47;1.50;;;36.00;65.20;;;;;;1878212;76;21974;-75
2023/06/23 05:04:20;;;;;;;17.77;2.25;;;36.00;65.30;;;;;;1840099;78;21150;-75
2023/06/23 05:06:53;;;;;;;9.33;1.77;;;35.90;66.20;;;;;;1826522;76;21156;-76
2023/06/23 05:09:25;;;;;;;2.62;1.20;;;36.00;65.40;;;;;;1887530;74;21114;-73
2023/06/23 05:11:59;;;;;;;5.60;1.40;;;36.00;66.50;;;;;;1837606;78;21173;-73
2023/06/23 05:14:32;;;;;;;4.03;1.52;;;36.00;65.10;;;;;;1882819;76;21170;-75
2023/06/23 05:17:08;;;;;;;4.97;1.60;;;36.00;64.90;;;;;;1842825;76;21131;-74
2023/06/23 05:19:43;;;;;;;7.08;2.00;;;35.90;65.70;;;;;;1840209;78;21150;-76
2023/06/23 05:22:18;;;;;;;6.53;2.00;;;35.90;66.20;;;;;;1836958;77;21605;-74
2023/06/23 05:24:52;;;;;;;5.43;1.77;;;36.00;66.00;;;;;;1817228;78;21181;-74
2023/06/23 05:27:26;;;;;;;6.15;1.60;;;36.00;66.10;;;;;;1815558;78;21088;-74
2023/06/23 05:30:00;;;;;;;4.55;1.60;;;36.00;66.10;;;;;;1798659;79;21162;-74
2023/06/23 05:32:33;;;;;;;5.20;1.67;;;36.00;66.20;;;;;;1885545;76;21055;-74
2023/06/23 05:35:06;;;;;;;4.37;1.90;;;36.00;65.80;;;;;;1887405;75;21149;-75
2023/06/23 05:37:40;;;;;;;2.55;1.32;;;36.00;66.50;;;;;;1839769;78;21075;-75
2023/06/23 05:40:14;;;;;;;4.15;1.90;;;36.10;65.00;;;;;;1851228;76;21151;-73
2023/06/23 05:42:47;;;;;;;3.00;1.52;;;36.00;65.40;;;;;;1893391;74;21119;-74
2023/06/23 05:45:19;;;;;;;11.90;2.67;;;36.00;65.40;;;;;;1900610;74;21054;-73
2023/06/23 05:47:58;;;;;;;3.90;1.60;;;36.00;65.70;;;;;;1892131;74;21222;-75
2023/06/23 05:50:32;;;;;;;3.75;1.75;;;35.90;66.20;;;;;;1902623;74;21142;-75
2023/06/23 05:53:16;;;;;;;4.87;2.02;;;35.90;65.80;;;;;;1842463;76;21056;-75
2023/06/23 05:56:08;;;;;;;3.40;1.70;;;36.00;65.40;;;;;;1885673;74;21204;-74
2023/06/23 05:58:43;;;;;;;2.72;1.30;;;36.00;65.40;;;;;;1887142;74;21198;-75
2023/06/23 06:01:19;;;;;;;4.15;1.55;;;36.00;66.00;;;;;;1827244;76;21151;-74
2023/06/23 06:04:12;;;;;;;3.25;1.50;;;36.10;65.50;;;;;;1885625;74;21125;-73
2023/06/23 06:06:45;;;;;;;5.25;2.00;;;36.10;64.80;;;;;;1895546;74;21438;-75
2023/06/23 06:09:19;;;;;;;;;;;36.10;65.10;;;;;;1888391;74;21194;-73
2023/06/23 06:11:53;;;;;;;6.47;1.87;;;36.10;65.30;;;;;;1884008;74;20128;-73
2023/06/23 06:14:26;;;;;;;4.42;1.67;;;36.10;65.90;;;;;;1887947;74;21608;-74
2023/06/23 06:17:00;;;;;;;4.95;1.72;;;36.10;65.00;;;;;;1886068;74;21142;-72
2023/06/23 06:19:34;;;;;;;4.37;1.82;;;36.10;65.90;;;;;;1846625;76;21174;-73
2023/06/23 06:22:07;;;;;;;5.17;2.10;;;36.10;65.20;;;;;;1883718;74;21153;-73
2023/06/23 06:24:42;;;;;;;2.92;1.40;;;36.10;66.00;;;;;;1842607;76;21162;-73
2023/06/23 06:27:16;;;;;;;7.47;1.75;;;36.10;64.80;;;;;;1877046;74;21115;-73
2023/06/23 06:29:50;;;;;;;4.75;1.57;;;36.10;64.70;;;;;;1886891;74;21174;-73
2023/06/23 06:32:22;;;;;;;4.55;1.47;;;36.10;64.90;;;;;;1888003;74;21191;-74
2023/06/23 06:35:04;;;;;;;3.65;1.35;;;36.10;65.40;;;;;;1901861;74;21075;-73
2023/06/23 06:37:41;;;;;;;3.58;1.50;;;36.20;63.40;;;;;;1848939;76;21151;-73
2023/06/23 06:40:15;;;;;;;3.37;1.30;;;36.10;64.60;;;;;;1892489;74;21091;-75
2023/06/23 06:42:47;;;;;;;7.17;2.25;;;36.10;64.80;;;;;;1888152;74;21094;-74
2023/06/23 06:45:20;;;;;;;3.75;1.70;;;36.10;65.50;;;;;;1893072;74;21064;-74
2023/06/23 06:47:53;;;;;;;4.10;1.50;;;36.10;65.70;;;;;;1889841;74;21645;-76
2023/06/23 06:50:26;;;;;;;5.50;1.75;;;36.20;65.30;;;;;;1884361;74;21140;-74
2023/06/23 06:53:02;;;;;;;4.15;1.55;;;36.20;65.00;;;;;;1887163;74;21121;-72
2023/06/23 06:55:34;;;;;;;5.03;2.05;;;36.20;65.00;;;;;;1882585;74;21097;-75
2023/06/23 06:58:08;;;;;;;14.15;3.12;;;36.20;65.10;;;;;;1890158;74;21147;-74
2023/06/23 07:00:41;;;;;;;11.85;3.17;;;36.20;63.80;;;;;;1881707;74;21223;-76
2023/06/23 07:03:15;;;;;;;7.90;3.12;;;36.10;64.60;;;;;;1842531;76;21127;-74
2023/06/23 07:05:54;;;;;;;5.72;2.00;;;36.10;65.30;;;;;;1893131;74;21220;-73
2023/06/23 07:08:26;;;;;;;10.35;2.05;;;36.20;65.40;;;;;;1884276;74;21142;-74
2023/06/23 07:10:57;;;;;;;4.65;1.85;;;36.20;64.50;;;;;;1888166;74;21169;-73
2023/06/23 07:13:29;;;;;;;4.10;1.30;;;36.30;63.30;;;;;;1885307;74;21235;-74
2023/06/23 07:16:01;;;;;;;4.30;1.37;;;36.30;63.90;;;;;;1842186;76;21079;-72
2023/06/23 07:18:33;;;;;;;3.55;1.32;;;36.30;62.70;;;;;;1839179;76;21147;-73
2023/06/23 07:21:08;;;;;;;8.43;1.72;;;36.30;62.20;;;;;;1892372;74;21142;-75
2023/06/23 07:23:43;;;;;;;3.08;1.20;;;36.40;63.20;;;;;;1895916;74;21518;-73
2023/06/23 07:26:15;;;;;;;6.03;1.30;;;36.40;63.40;;;;;;1897410;74;21134;-71
2023/06/23 07:28:49;;;;;;;3.50;1.30;;;36.40;63.10;;;;;;1875968;75;21112;-72
2023/06/23 07:31:21;;;;;;;6.12;1.40;;;36.30;62.00;;;;;;1889034;75;21256;-70
2023/06/23 07:33:52;;;;;;;6.62;1.80;;;36.30;62.40;;;;;;1895224;74;21111;-75
2023/06/23 07:36:23;;;;;;;7.47;1.75;;;36.20;62.90;;;;;;1889004;74;21100;-73
2023/06/23 07:39:00;;;;;;;5.33;2.17;;;36.10;63.50;;;;;;1890993;74;21591;-73
2023/06/23 07:41:42;;;;;;;8.08;2.00;;;36.20;64.10;;;;;;1893826;74;21600;-71
2023/06/23 07:44:13;;;;;;;5.03;1.70;;;36.30;63.10;;;;;;1892931;74;21082;-74
2023/06/23 07:46:56;;;;;;;3.45;1.45;;;36.30;62.40;;;;;;1904916;74;21078;-74
2023/06/23 07:49:29;;;;;;;4.10;1.72;;;36.30;63.50;;;;;;1838938;78;21161;-72
2023/06/23 07:52:07;;;;;;;3.17;1.47;;;36.30;62.10;;;;;;1893747;74;21204;-77
2023/06/23 07:54:42;;;;;;;5.25;1.40;;;36.40;62.40;;;;;;1902206;74;21501;-76
2023/06/23 07:57:21;;;;;;;15.18;5.90;;;36.40;62.10;;;;;;1894885;75;21134;-74
2023/06/23 07:59:53;;;;;;;6.85;1.40;;;36.40;61.60;;;;;;1843037;77;21682;-75
2023/06/23 08:02:27;;;;;;;5.53;1.65;;;36.40;61.50;;;;;;1895858;74;21145;-73
2023/06/23 08:05:01;;;;;;;4.40;1.47;;;36.40;61.40;;;;;;1851919;76;21080;-72
2023/06/23 08:07:34;;;;;;;3.77;1.35;;;36.40;62.00;;;;;;1889789;74;21090;-73
2023/06/23 08:10:08;;;;;;;3.90;1.30;;;36.40;62.10;;;;;;1843735;76;21663;-73
2023/06/23 08:12:40;;;;;;;5.50;1.50;;;36.40;62.20;;;;;;1882131;76;21611;-73
2023/06/23 08:15:12;;;;;;;7.20;1.92;;;36.40;60.90;;;;;;1890944;74;21170;-75
2023/06/23 08:17:44;;;;;;;3.22;1.72;;;36.40;61.80;;;;;;1898294;74;21724;-74
2023/06/23 08:20:18;;;;;;;6.62;2.12;;;36.40;61.40;;;;;;1886282;74;21104;-72
2023/06/23 08:22:49;;;;;;;4.03;1.40;;;36.40;62.40;;;;;;1890622;74;21197;-71
2023/06/23 08:25:23;;;;;;;6.37;1.65;;;36.40;62.30;;;;;;1889906;74;21067;-72
2023/06/23 08:27:55;;;;;;;3.10;1.30;;;36.30;62.90;;;;;;1894527;74;21141;-72
2023/06/23 08:30:32;;;;;;;4.20;1.72;;;36.30;61.90;;;;;;1854521;76;21157;-70
2023/06/23 08:33:04;;;;;;;10.65;2.08;;;36.30;61.60;;;;;;1892869;74;21168;-72
2023/06/23 08:35:37;;;;;;;3.85;1.50;;;36.30;62.10;;;;;;1842177;78;21048;-73
2023/06/23 08:38:12;;;;;;;3.85;1.50;;;36.20;62.30;;;;;;1838086;76;21121;-72
2023/06/23 08:40:43;;;;;;;5.50;1.32;;;36.20;62.20;;;;;;1889653;74;21195;-73
2023/06/23 08:43:16;;;;;;;5.40;1.87;;;36.20;61.30;;;;;;1903729;74;21121;-76
2023/06/23 08:45:51;;;;;;;5.75;1.67;;;36.10;62.70;;;;;;1904572;74;21146;-74
2023/06/23 08:48:26;;;;;;;5.53;1.12;;;36.10;63.20;;;;;;1886142;74;21871;-75
2023/06/23 08:51:03;;;;;;;3.60;1.30;;;36.10;61.80;;;;;;1886089;74;21539;-74
2023/06/23 08:53:35;;;;;;;6.15;1.67;;;36.10;62.00;;;;;;1876870;74;21129;-72
2023/06/23 08:56:08;;;;;;;4.30;1.40;;;36.10;62.00;;;;;;1876122;75;21125;-74
2023/06/23 08:58:40;;;;;;;10.43;3.17;;;36.10;62.10;;;;;;1837006;76;21150;-73
2023/06/23 09:01:12;;;;;;;5.45;1.45;;;36.10;62.50;;;;;;1892332;74;21185;-74
2023/06/23 09:03:44;;;;;;;5.25;1.07;;;36.10;62.70;;;;;;1850473;76;21130;-74
2023/06/23 09:06:19;;;;;;;5.63;1.57;;;36.10;62.70;;;;;;1893970;74;21129;-73
2023/06/23 09:08:51;;;;;;;7.00;1.60;;;36.10;63.40;;;;;;1887931;76;21122;-74
2023/06/23 09:11:23;;;;;;;7.72;2.08;;;36.10;63.00;;;;;;1844813;76;21134;-73
2023/06/23 09:13:57;;;;;;;5.78;2.17;;;36.00;63.20;;;;;;1813277;78;21281;-72
2023/06/23 09:16:31;;;;;;;7.72;2.10;;;36.00;62.70;;;;;;1895533;74;21125;-72
2023/06/23 09:19:05;;;;;;;7.33;1.90;;;36.00;62.70;;;;;;1886734;74;21059;-72
2023/06/23 09:21:40;;;;;;;4.17;1.50;;;36.00;63.40;;;;;;1887562;74;21141;-69
2023/06/23 09:24:12;;;;;;;;;;;36.00;63.20;;;;;;1845309;78;21069;-70
2023/06/23 09:26:59;;;;;;;8.43;2.55;;;36.00;63.40;;;;;;1843634;78;20184;-72
2023/06/23 09:29:27;;;;;;;4.17;1.90;;;36.00;63.40;;;;;;1842882;77;21102;-72
2023/06/23 09:32:02;;;;;;;4.28;1.80;;;35.90;63.90;;;;;;1895509;74;21186;-70
2023/06/23 09:34:38;;;;;;;4.65;2.00;;;35.90;64.50;;;;;;1842351;78;21106;-72
2023/06/23 09:37:14;;;;;;;6.97;2.75;;;35.80;64.30;;;;;;1807772;78;21199;-73
2023/06/23 09:39:49;;;;;;;6.20;2.85;;;35.80;64.80;;;;;;1891820;74;21229;-73
2023/06/23 09:42:24;;;;;;;4.62;2.83;;;35.80;65.20;;;;;;1843282;76;21188;-69
2023/06/23 09:44:56;;;;;;;6.78;2.52;;;35.80;65.60;;;;;;1848912;76;21133;-72
2023/06/23 09:47:29;;;;;;;9.48;2.45;;;35.80;65.50;;;;;;1885263;74;21199;-73
2023/06/23 09:50:01;;;;;;;6.58;2.20;;;35.70;65.60;;;;;;1898055;74;21122;-74
2023/06/23 09:52:32;;;;;;;6.03;2.33;;;35.70;65.50;;;;;;1845331;76;21115;-76
2023/06/23 09:55:06;;;;;;;4.45;2.50;;;35.70;65.80;;;;;;1899488;74;21141;-74
2023/06/23 09:57:47;;;;;;;6.90;3.05;;;35.60;66.10;;;;;;1850839;76;21154;-76
2023/06/23 10:00:35;;;;;;;8.00;2.45;;;35.60;66.50;;;;;;1844075;76;21173;-79
2023/06/23 10:03:07;;;;;;;7.78;3.22;;;35.60;66.10;;;;;;1907617;74;21130;-80
2023/06/23 10:05:40;;;;;;;5.95;2.20;;;35.50;66.10;;;;;;1895232;74;21067;-80
2023/06/23 10:08:12;;;;;;;8.03;2.30;;;35.50;66.90;;;;;;1912603;75;21076;-80
2023/06/23 10:10:47;;;;;;;7.55;3.12;;;35.50;66.60;;;;;;1907586;74;21174;-79
2023/06/23 10:13:21;;;;;;;18.02;3.85;;;35.40;67.40;;;;;;1887710;76;21208;-81
2023/06/23 10:15:53;;;;;;;6.12;2.52;;;35.40;67.30;;;;;;1892289;74;21105;-80
2023/06/23 10:18:26;;;;;;;7.28;2.75;;;35.40;67.70;;;;;;1899503;74;21124;-80
2023/06/23 10:21:01;;;;;;;5.67;2.95;;;35.30;68.00;;;;;;1895694;74;21153;-79
2023/06/23 10:23:38;;;;;;;5.17;2.90;;;35.30;68.20;;;;;;1898377;74;21075;-80
2023/06/23 10:26:12;;;;;;;6.37;3.08;;;35.30;68.00;;;;;;1897114;74;21134;-81
2023/06/23 10:28:47;;;;;;;6.42;3.40;;;35.30;68.30;;;;;;1894277;74;21173;-80
2023/06/23 10:31:21;;;;;;;9.25;2.77;;;35.30;68.40;;;;;;1907485;75;21247;-80
2023/06/23 10:33:56;;;;;;;12.82;5.03;;;35.20;68.20;;;;;;1903496;74;21623;-80
2023/06/23 10:36:31;;;;;;;7.25;3.95;;;35.20;68.30;;;;;;1839547;78;21656;-79
2023/06/23 10:39:08;;;;;;;6.87;3.02;;;35.20;68.30;;;;;;1891571;74;21504;-78
2023/06/23 10:41:41;;;;;;;4.72;2.58;;;35.10;68.30;;;;;;1915805;74;21188;-77
2023/06/23 10:44:15;;;;;;;3.58;2.50;;;35.10;67.90;;;;;;1885769;76;21059;-80
2023/06/23 10:46:49;;;;;;;7.77;2.80;;;35.10;68.20;;;;;;1891761;74;21125;-79
2023/06/23 10:49:24;;;;;;;10.75;2.60;;;35.10;68.20;;;;;;1913124;74;21192;-79
2023/06/23 10:51:56;;;;;;;5.00;3.22;;;35.10;68.50;;;;;;1846086;76;21198;-81
2023/06/23 10:54:30;;;;;;;8.98;3.37;;;35.00;68.30;;;;;;1891032;76;21123;-79
2023/06/23 10:57:04;;;;;;;8.20;3.45;;;35.00;68.40;;;;;;1845305;76;21212;-81
2023/06/23 10:59:35;;;;;;;6.25;3.35;;;35.00;69.10;;;;;;1897843;74;21121;-78
2023/06/23 11:02:18;;;;;;;5.05;2.95;;;35.00;69.30;;;;;;1912339;74;21063;-81
2023/06/23 11:05:00;;;;;;;8.40;3.55;;;34.90;69.00;;;;;;1912331;74;21211;-80
2023/06/23 11:07:34;;;;;;;10.98;6.80;;;34.90;68.90;;;;;;1867026;76;21281;-82
2023/06/23 11:10:10;;;;;;;7.90;3.77;;;34.90;68.40;;;;;;1909760;74;21203;-78
2023/06/23 11:12:44;;;;;;;8.85;4.00;;;34.90;68.90;;;;;;1851020;77;21549;-79
2023/06/23 11:15:24;;;;;;;14.95;5.83;;;34.80;68.70;;;;;;1905632;74;21071;-74
2023/06/23 11:18:09;;;;;;;11.35;4.65;;;34.90;68.90;;;;;;1892485;76;21180;-77
2023/06/23 11:20:43;;;;;;;12.55;4.62;;;34.90;69.30;;;;;;1844706;78;21158;-77
2023/06/23 11:23:21;;;;;;;12.23;4.50;;;34.80;69.60;;;;;;1893138;76;21423;-82
2023/06/23 11:26:14;;;;;;;10.20;4.92;;;34.80;69.80;;;;;;1843930;77;21142;-79
2023/06/23 11:28:49;;;;;;;12.47;7.00;;;34.80;70.00;;;;;;1871020;75;21043;-79
2023/06/23 11:31:26;;;;;;;14.98;9.10;;;34.70;70.60;;;;;;1888589;74;21079;-76
2023/06/23 11:34:03;;;;;;;16.32;9.23;;;34.70;71.10;;;;;;1861129;77;21183;-79
2023/06/23 11:36:38;;;;;;;12.93;7.50;;;34.70;71.40;;;;;;1841866;77;21166;-81
2023/06/23 11:39:10;;;;;;;16.45;7.33;;;34.70;71.60;;;;;;1895202;74;21119;-79
2023/06/23 11:41:42;;;;;;;11.63;6.75;;;34.60;71.60;;;;;;1880924;74;21063;-80
2023/06/23 11:44:19;;;;;;;12.30;7.05;;;34.50;71.80;;;;;;1897939;74;21148;-77
2023/06/23 11:46:53;;;;;;;11.83;6.57;;;34.50;72.00;;;;;;1844668;78;21123;-80
2023/06/23 11:49:28;;;;;;;10.10;5.17;;;34.50;72.00;;;;;;1899035;74;21390;-80
2023/06/23 11:52:07;;;;;;;10.70;4.78;;;34.50;72.00;;;;;;1818592;78;21088;-79
2023/06/23 11:54:41;;;;;;;9.78;5.25;;;34.40;72.20;;;;;;1804312;78;21113;-78
2023/06/23 11:57:23;;;;;;;8.85;4.67;;;34.40;72.60;;;;;;1840714;77;21142;-79
2023/06/23 12:00:04;;;;;;;9.30;4.80;;;34.40;72.80;;;;;;1834295;76;21679;-79
2023/06/23 12:02:48;;;;;;;7.45;4.10;;;34.30;73.10;;;;;;1892491;74;21046;-78
2023/06/23 12:05:27;;;;;;;11.50;4.95;;;34.30;73.20;;;;;;1884064;75;21631;-81
2023/06/23 12:08:04;;;;;;;9.80;4.83;;;34.30;73.60;;;;;;1888931;75;21098;-80
2023/06/23 12:10:40;;;;;;;8.93;4.75;;;34.30;73.60;;;;;;1854977;76;21100;-76
2023/06/23 12:13:14;;;;;;;9.95;4.62;;;34.20;73.50;;;;;;1804481;79;21484;-76
2023/06/23 12:15:45;;;;;;;9.35;4.80;;;34.20;73.50;;;;;;1847235;76;21099;-76
2023/06/23 12:18:16;;;;;;;9.55;4.10;;;34.20;73.40;;;;;;1815472;79;21150;-77
2023/06/23 12:20:52;;;;;;;9.28;4.20;;;34.20;73.50;;;;;;1791188;80;21154;-77
2023/06/23 12:23:26;;;;;;;8.53;4.37;;;34.20;73.60;;;;;;1789606;79;21144;-76
2023/06/23 12:26:06;;;;;;;6.85;4.22;;;34.20;73.70;;;;;;1820491;77;21125;-80
2023/06/23 12:28:38;;;;;;;10.35;4.12;;;34.10;73.80;;;;;;1842139;76;21441;-81
2023/06/23 12:31:09;;;;;;;10.03;5.45;;;34.20;74.10;;;;;;1919754;73;21111;-77
2023/06/23 12:33:46;;;;;;;10.63;5.72;;;34.10;73.90;;;;;;1906469;74;21199;-78
2023/06/23 12:36:21;;;;;;;11.70;5.83;;;34.10;74.00;;;;;;1887224;76;21179;-80
2023/06/23 12:38:58;;;;;;;12.70;5.50;;;34.10;73.90;;;;;;1844926;76;21640;-78
2023/06/23 12:41:33;;;;;;;10.32;6.95;;;34.10;73.90;;;;;;1787775;80;21099;-80
2023/06/23 12:44:05;;;;;;;12.90;6.50;;;34.10;73.80;;;;;;1851630;77;21596;-81
2023/06/23 12:46:39;;;;;;;18.98;6.42;;;34.10;73.80;;;;;;1887100;75;21087;-80
2023/06/23 12:49:11;;;;;;;9.90;5.15;;;34.00;73.70;;;;;;1854317;76;21209;-81
2023/06/23 12:51:45;;;;;;;12.45;6.87;;;34.00;73.40;;;;;;1786947;78;21262;-80
2023/06/23 12:54:18;;;;;;;14.98;7.10;;;34.00;73.60;;;;;;1852960;77;21211;-80
2023/06/23 12:56:53;;;;;;;14.87;7.75;;;34.00;73.30;;;;;;1852091;76;21673;-80
2023/06/23 12:59:28;;;;;;;14.30;8.50;;;34.00;73.40;;;;;;1842090;78;21415;-78
2023/06/23 13:02:01;;;;;;;14.43;8.33;;;34.00;73.40;;;;;;1867298;76;21214;-78
2023/06/23 13:04:33;;;;;;;13.00;8.83;;;34.00;73.50;;;;;;1888765;76;21126;-80
2023/06/23 13:07:06;;;;;;;14.68;8.45;;;34.00;73.90;;;;;;1888306;76;21155;-80
2023/06/23 13:09:38;;;;;;;13.32;7.78;;;34.00;74.00;;;;;;1876757;76;21067;-81
2023/06/23 13:12:10;;;;;;;12.00;7.65;;;34.00;73.90;;;;;;1861173;76;21196;-82
2023/06/23 13:14:43;;;;;;;17.40;8.13;;;34.00;74.00;;;;;;1892614;74;21095;-79
2023/06/23 13:17:15;;;;;;;11.53;6.80;;;34.00;74.10;;;;;;1841496;78;21087;-79
2023/06/23 13:19:48;;;;;;;11.50;6.28;;;34.00;74.30;;;;;;1841013;78;21139;-81
2023/06/23 13:22:20;;;;;;;12.37;6.92;;;34.00;74.50;;;;;;1844303;77;21185;-80
2023/06/23 13:24:56;;;;;;;13.22;6.97;;;33.90;74.30;;;;;;1891084;76;21505;-82